Airfield :
LOGIN :

Register | Disclaimer

   EN    FR    IT 

 










Legend :    VFR   Marginal VFR   IFR   Intensive IFR   Very Intensive IFR
Visi :
Ceiling :
>= 8 km
>= 3000ft
5 to 8 km
1000 to 3000 ft
1500m to 5 km
500 to 1000 ft
800 to 1500m
200 to 500 ft
< 800m
< 200 ft
Symbols :   Thunderstorms  Fog  Heavy snow  Heavy precipitations  Wind > 20 kt
SIGMETs :     Misc.  Thunderstorms  Icing  Turbulence  Mountain Waves  Volcanic Ashes






- Airport Elevation : 425 ft
- IATA code : DTM


EDLW - Dortmund

CURRENT METAR :
  • 231420Z VRB04KT CAVOK 09/M01 Q1017

EXPIRED METARs :
  • 231350Z 29007KT 240V350 CAVOK 09/M02 Q1017
  • 231320Z VRB05KT CAVOK 09/M03 Q1017
  • 231250Z 24007KT 180V280 CAVOK 10/M03 Q1017
  • 231220Z VRB04KT CAVOK 09/M03 Q1018
  • 231150Z 23005KT 160V280 CAVOK 09/M04 Q1018
  • 231120Z VRB04KT CAVOK 09/M04 Q1019
  • 231020Z 05004KT 310V110 CAVOK 08/M03 Q1019
  • 230950Z VRB03KT 9999 FEW049 08/M04 Q1020
  • 230920Z 07006KT 040V110 CAVOK 07/M05 Q1020

TAF TAF EDLW
Valid from the 23 at 12:00 until the 24 at 12:00 UTC


231100Z 2312/2412 31004KT 9999 SCT040
BECMG 2317/2320 25006KT
TEMPO 2322/2401 3000 RA BR BKN008
TEMPO 2407/2412 25011KT 2000 SHRAGS BKN008CB



MET'MAP, your aeronautical weather chart ! - Copyright ORBIFLY December 2007 - Disclaimer

ORBIFLY MET'MAP TEAM :

Programming & Development : Alexandra Zaïnal
Original concept : Baudouin d'Aumeries
Technical & hardware support : Manuel Goepfert
Assistance : Marc-Olivier Méhu




SOURCES & CREDITS :

   NOAA